createdAt,value
2018-08-22T00:02:20.839Z,99.90
2018-08-22T00:04:49.288Z,99.90
2018-08-22T00:07:17.847Z,99.90
2018-08-22T00:09:46.295Z,99.90
2018-08-22T00:12:14.772Z,99.90
2018-08-22T00:14:43.204Z,99.90
2018-08-22T00:17:11.628Z,99.90
2018-08-22T00:19:40.093Z,99.90
2018-08-22T00:22:08.576Z,99.90
2018-08-22T00:24:37.011Z,99.90
2018-08-22T00:27:05.455Z,99.90
2018-08-22T00:29:34.177Z,99.90
2018-08-22T00:32:02.599Z,99.90
2018-08-22T00:34:31.045Z,99.90
2018-08-22T00:36:59.473Z,99.90
2018-08-22T00:39:27.921Z,99.90
2018-08-22T00:41:56.349Z,99.90
2018-08-22T00:44:24.791Z,99.90
2018-08-22T00:46:53.222Z,99.90
2018-08-22T00:49:21.664Z,99.90
2018-08-22T00:51:50.115Z,99.90
2018-08-22T00:54:18.577Z,99.90
2018-08-22T00:56:46.999Z,99.90
2018-08-22T00:59:15.428Z,99.90
2018-08-22T01:01:43.875Z,99.90
2018-08-22T01:04:12.300Z,99.90
2018-08-22T01:06:41.615Z,99.90
2018-08-22T01:09:10.135Z,99.90
2018-08-22T01:11:38.831Z,99.90
2018-08-22T01:14:07.328Z,99.90
2018-08-22T01:16:35.796Z,99.90
2018-08-22T01:19:04.285Z,99.90
2018-08-22T01:21:32.734Z,99.90
2018-08-22T01:24:01.215Z,99.90
2018-08-22T01:26:29.864Z,99.90
2018-08-22T01:28:58.313Z,99.90
2018-08-22T01:31:26.756Z,99.90
2018-08-22T01:33:55.176Z,99.90
2018-08-22T01:36:23.616Z,99.90
2018-08-22T01:38:52.047Z,99.90
2018-08-22T01:41:20.612Z,99.90
2018-08-22T01:43:49.047Z,99.90
2018-08-22T01:46:17.519Z,99.90
2018-08-22T01:48:45.952Z,99.90
2018-08-22T01:51:14.403Z,99.90
2018-08-22T01:53:42.851Z,99.90
2018-08-22T01:56:11.268Z,99.90
2018-08-22T01:58:39.756Z,99.90
2018-08-22T02:01:08.172Z,99.90
2018-08-22T02:03:36.642Z,99.90
2018-08-22T02:06:05.047Z,99.90
2018-08-22T02:08:33.506Z,99.90
2018-08-22T02:11:01.913Z,99.90
2018-08-22T02:13:30.359Z,99.90
2018-08-22T02:15:58.763Z,99.90
2018-08-22T02:18:27.211Z,99.90
2018-08-22T02:20:55.617Z,99.90
2018-08-22T02:23:24.065Z,99.90
2018-08-22T02:25:52.476Z,99.90
2018-08-22T02:28:20.916Z,99.90
2018-08-22T02:30:49.329Z,99.90
2018-08-22T02:33:17.778Z,99.90
2018-08-22T02:35:46.423Z,99.90
2018-08-22T02:38:19.064Z,99.90
2018-08-22T02:40:47.515Z,99.90
2018-08-22T02:43:15.962Z,99.90
2018-08-22T02:45:44.389Z,99.90
2018-08-22T02:48:12.808Z,99.90
2018-08-22T02:50:41.231Z,99.90
2018-08-22T02:53:09.670Z,99.90
2018-08-22T02:55:38.469Z,99.90
2018-08-22T02:58:06.896Z,99.90
2018-08-22T03:00:35.319Z,99.90
2018-08-22T03:03:03.774Z,99.90
2018-08-22T03:05:32.203Z,99.90
2018-08-22T03:08:00.649Z,99.90
2018-08-22T03:10:29.080Z,99.90
2018-08-22T03:12:57.536Z,99.90
2018-08-22T03:15:25.989Z,99.90
2018-08-22T03:17:54.420Z,99.90
2018-08-22T03:20:22.851Z,99.90
2018-08-22T03:22:51.245Z,99.90
2018-08-22T03:25:19.690Z,99.90
2018-08-22T03:27:48.117Z,99.90
2018-08-22T03:30:16.557Z,99.90
2018-08-22T03:32:44.961Z,99.90
2018-08-22T03:35:13.367Z,99.90
2018-08-22T03:37:41.805Z,99.90
2018-08-22T03:40:10.205Z,99.90
2018-08-22T03:42:38.703Z,99.90
2018-08-22T03:45:07.225Z,99.90
2018-08-22T03:47:35.672Z,99.90
2018-08-22T03:50:04.160Z,99.90
2018-08-22T03:52:32.618Z,99.90
2018-08-22T03:55:01.020Z,99.90
2018-08-22T03:57:29.468Z,99.90
2018-08-22T03:59:57.892Z,99.90
2018-08-22T04:02:26.361Z,99.90
2018-08-22T04:04:54.823Z,99.90
2018-08-22T04:07:23.262Z,99.90
2018-08-22T04:09:51.696Z,99.90
2018-08-22T04:12:20.297Z,99.90
2018-08-22T04:14:48.713Z,99.90
2018-08-22T04:17:17.165Z,99.90
2018-08-22T04:19:45.585Z,99.90
2018-08-22T04:22:14.003Z,99.90
2018-08-22T04:24:42.417Z,99.90
2018-08-22T04:27:10.876Z,99.90
2018-08-22T04:29:39.283Z,99.90
2018-08-22T04:32:07.688Z,99.90
2018-08-22T04:34:36.132Z,99.90
2018-08-22T04:37:04.550Z,99.90
2018-08-22T04:39:32.990Z,99.90
2018-08-22T04:42:01.400Z,99.90
2018-08-22T04:44:29.826Z,99.90
2018-08-22T04:46:58.252Z,99.90
2018-08-22T04:49:26.861Z,99.90
2018-08-22T04:51:55.299Z,99.90
2018-08-22T04:54:23.740Z,99.90
2018-08-22T04:56:52.174Z,99.90
2018-08-22T04:59:20.611Z,99.90
2018-08-22T05:01:49.028Z,99.90
2018-08-22T05:04:17.480Z,99.90
2018-08-22T05:06:45.904Z,99.90
2018-08-22T05:09:14.365Z,99.90
2018-08-22T05:11:42.796Z,99.90
2018-08-22T05:14:11.764Z,99.90
2018-08-22T05:16:40.189Z,99.90
2018-08-22T05:19:08.628Z,99.90
2018-08-22T05:21:37.157Z,99.90
2018-08-22T05:24:05.600Z,99.90
2018-08-22T05:29:20.648Z,99.90
2018-08-22T05:31:49.184Z,99.90
2018-08-22T05:34:21.024Z,99.90
2018-08-22T05:36:49.536Z,99.90
2018-08-22T05:39:18.985Z,99.90
2018-08-22T05:41:48.060Z,99.90
2018-08-22T05:44:16.480Z,99.90
2018-08-22T05:46:44.920Z,99.90
2018-08-22T05:49:13.395Z,99.90
2018-08-22T05:51:41.876Z,99.90
2018-08-22T05:54:10.304Z,99.90
2018-08-22T05:56:38.752Z,99.90
2018-08-22T05:59:07.182Z,99.90
2018-08-22T06:01:35.628Z,99.90
2018-08-22T06:04:04.065Z,99.90
2018-08-22T06:06:32.522Z,99.90
2018-08-22T06:09:00.958Z,99.90
2018-08-22T06:11:29.442Z,99.90
2018-08-22T06:13:57.873Z,99.90
2018-08-22T06:16:26.321Z,99.90
2018-08-22T06:18:54.792Z,99.90
2018-08-22T06:21:23.253Z,99.90
2018-08-22T06:23:51.705Z,99.90
2018-08-22T06:26:20.177Z,99.90
2018-08-22T06:28:48.608Z,99.90
2018-08-22T06:31:17.081Z,99.90
2018-08-22T06:33:45.516Z,99.90
2018-08-22T06:36:14.039Z,99.90
2018-08-22T06:38:42.435Z,99.90
2018-08-22T06:41:10.888Z,99.90
2018-08-22T06:43:39.345Z,99.90
2018-08-22T06:46:07.777Z,98.00
2018-08-22T06:48:36.233Z,97.30
2018-08-22T06:51:04.688Z,95.90
2018-08-22T06:53:33.144Z,94.20
2018-08-22T06:56:01.584Z,94.00
2018-08-22T06:58:30.029Z,92.30
2018-08-22T07:00:58.437Z,92.70
2018-08-22T07:03:26.878Z,93.30
2018-08-22T07:05:55.289Z,93.50
2018-08-22T07:08:23.725Z,93.40
2018-08-22T07:10:52.134Z,92.80
2018-08-22T07:13:20.580Z,92.40
2018-08-22T07:15:48.980Z,92.30
2018-08-22T07:18:17.585Z,92.30
2018-08-22T07:20:46.102Z,91.70
2018-08-22T07:23:14.539Z,90.90
2018-08-22T07:25:42.957Z,91.20
2018-08-22T07:28:11.472Z,91.20
2018-08-22T07:30:39.895Z,89.70
2018-08-22T07:33:08.344Z,89.20
2018-08-22T07:35:36.788Z,88.10
2018-08-22T07:38:05.235Z,90.30
2018-08-22T07:40:33.653Z,91.00
2018-08-22T07:43:02.085Z,88.00
2018-08-22T07:45:30.538Z,88.60
2018-08-22T07:47:58.968Z,88.10
2018-08-22T07:50:27.441Z,83.70
2018-08-22T07:53:01.373Z,85.60
2018-08-22T07:55:29.924Z,85.90
2018-08-22T07:57:58.349Z,85.50
2018-08-22T08:00:26.780Z,85.60
2018-08-22T08:02:55.225Z,86.20
2018-08-22T08:05:23.670Z,86.20
2018-08-22T08:07:52.089Z,85.40
2018-08-22T08:10:25.941Z,83.70
2018-08-22T08:12:54.429Z,81.20
2018-08-22T08:15:22.856Z,78.30
2018-08-22T08:17:51.263Z,76.90
2018-08-22T08:20:19.692Z,75.80
2018-08-22T08:22:48.103Z,74.50
2018-08-22T08:25:16.539Z,74.60
2018-08-22T08:27:44.957Z,72.90
2018-08-22T08:30:13.387Z,70.80
2018-08-22T08:32:41.826Z,71.10
2018-08-22T08:35:10.318Z,71.50
2018-08-22T08:37:38.753Z,69.00
2018-08-22T08:40:07.212Z,68.60
2018-08-22T08:42:35.652Z,68.50
2018-08-22T08:45:04.816Z,68.00
2018-08-22T08:47:33.268Z,69.50
2018-08-22T08:50:01.752Z,69.30
2018-08-22T08:52:30.275Z,67.70
2018-08-22T08:54:58.688Z,67.30
2018-08-22T08:57:27.208Z,66.70
2018-08-22T08:59:55.564Z,64.30
2018-08-22T09:02:24.308Z,63.10
2018-08-22T09:04:52.750Z,63.40
2018-08-22T09:07:21.218Z,62.20
2018-08-22T09:09:49.654Z,62.30
2018-08-22T09:12:18.175Z,61.40
2018-08-22T09:14:46.564Z,60.00
2018-08-22T09:17:15.082Z,59.60
2018-08-22T09:19:43.509Z,57.00
2018-08-22T09:22:12.012Z,58.10
2018-08-22T09:24:40.473Z,58.10
2018-08-22T09:27:08.935Z,57.60
2018-08-22T09:29:37.407Z,57.00
2018-08-22T09:32:05.825Z,57.30
2018-08-22T09:34:34.279Z,55.30
2018-08-22T09:37:02.737Z,56.50
2018-08-22T09:39:31.264Z,56.70
2018-08-22T09:41:59.664Z,58.20
2018-08-22T09:44:28.092Z,57.00
2018-08-22T09:46:56.554Z,56.60
2018-08-22T09:49:25.014Z,55.80
2018-08-22T09:51:53.483Z,55.80
2018-08-22T09:54:21.916Z,56.80
2018-08-22T09:56:50.376Z,56.60
2018-08-22T09:59:18.804Z,56.50
2018-08-22T10:01:47.264Z,57.10
2018-08-22T10:04:15.712Z,56.30
2018-08-22T10:06:46.119Z,56.00
2018-08-22T10:09:17.649Z,55.70
2018-08-22T10:11:46.113Z,53.80
2018-08-22T10:14:14.612Z,52.90
2018-08-22T10:16:43.056Z,54.10
2018-08-22T10:19:11.557Z,54.00
2018-08-22T10:21:40.004Z,53.30
2018-08-22T10:24:08.487Z,52.90
2018-08-22T10:26:37.029Z,52.90
2018-08-22T10:29:05.663Z,52.70
2018-08-22T10:31:34.121Z,51.80
2018-08-22T10:34:02.568Z,50.80
2018-08-22T10:36:31.020Z,52.90
2018-08-22T10:38:59.476Z,51.60
2018-08-22T10:41:27.901Z,51.60
2018-08-22T10:43:56.339Z,53.00
2018-08-22T10:46:24.823Z,52.80
2018-08-22T10:48:53.298Z,53.30
2018-08-22T10:51:21.781Z,52.50
2018-08-22T10:53:50.242Z,52.40
2018-08-22T10:56:18.664Z,50.30
2018-08-22T10:58:47.089Z,51.30
2018-08-22T11:01:15.516Z,51.00
2018-08-22T11:03:43.932Z,49.60
2018-08-22T11:06:12.384Z,49.00
2018-08-22T11:08:40.800Z,48.90
2018-08-22T11:11:09.258Z,48.80
2018-08-22T11:13:37.690Z,48.90
2018-08-22T11:16:06.235Z,47.30
2018-08-22T11:18:34.625Z,48.10
2018-08-22T11:21:15.869Z,48.20
2018-08-22T11:23:55.771Z,47.30
2018-08-22T11:26:35.657Z,47.90
2018-08-22T11:29:15.440Z,49.10
2018-08-22T11:31:55.117Z,48.40
2018-08-22T11:34:34.700Z,48.90
2018-08-22T11:37:05.354Z,49.90
2018-08-22T11:39:33.873Z,49.40
2018-08-22T11:42:02.725Z,48.80
2018-08-22T11:44:31.272Z,48.00
2018-08-22T11:47:00.296Z,48.20
2018-08-22T11:49:29.155Z,47.50
2018-08-22T11:51:58.071Z,47.60
2018-08-22T11:54:26.644Z,47.60
2018-08-22T11:56:55.150Z,47.20
2018-08-22T11:59:23.632Z,46.40
2018-08-22T12:01:52.180Z,46.60
2018-08-22T12:04:20.989Z,46.50
2018-08-22T12:06:49.562Z,46.80
2018-08-22T12:09:18.064Z,47.20
2018-08-22T12:11:46.553Z,47.10
2018-08-22T12:14:15.037Z,47.40
2018-08-22T12:16:43.525Z,47.40
2018-08-22T12:19:12.189Z,47.60
2018-08-22T12:21:41.426Z,47.30
2018-08-22T12:24:09.942Z,47.10
2018-08-22T12:26:38.406Z,46.10
2018-08-22T12:29:06.877Z,46.70
2018-08-22T12:31:35.644Z,46.90
2018-08-22T12:34:04.149Z,47.10
2018-08-22T12:36:32.602Z,46.40
2018-08-22T12:39:01.065Z,46.20
2018-08-22T12:41:29.541Z,46.30
2018-08-22T12:43:57.997Z,46.10
2018-08-22T12:46:26.450Z,45.80
2018-08-22T12:48:54.906Z,46.20
2018-08-22T12:51:23.377Z,45.90
2018-08-22T12:53:51.835Z,46.80
2018-08-22T12:56:20.272Z,47.30
2018-08-22T12:58:48.742Z,46.50
2018-08-22T13:01:17.168Z,47.60
2018-08-22T13:03:45.615Z,48.00
2018-08-22T13:06:14.033Z,48.60
2018-08-22T13:08:42.486Z,48.90
2018-08-22T13:11:11.018Z,48.40
2018-08-22T13:13:39.476Z,47.80
2018-08-22T13:16:07.908Z,47.40
2018-08-22T13:18:36.341Z,47.50
2018-08-22T13:21:04.810Z,46.50
2018-08-22T13:23:33.247Z,46.20
2018-08-22T13:26:01.689Z,46.30
2018-08-22T13:28:30.137Z,44.60
2018-08-22T13:30:58.592Z,46.10
2018-08-22T13:33:27.019Z,45.50
2018-08-22T13:35:55.477Z,45.70
2018-08-22T13:38:23.931Z,45.70
2018-08-22T13:40:52.544Z,45.40
2018-08-22T13:43:20.992Z,45.20
2018-08-22T13:45:49.454Z,45.80
2018-08-22T13:48:17.983Z,46.00
2018-08-22T13:50:46.453Z,45.50
2018-08-22T13:53:14.943Z,45.90
2018-08-22T13:55:43.417Z,46.30
2018-08-22T13:58:11.886Z,45.90
2018-08-22T14:00:40.381Z,46.40
2018-08-22T14:03:08.820Z,45.90
2018-08-22T14:05:37.279Z,46.30
2018-08-22T14:08:05.721Z,46.00
2018-08-22T14:10:34.212Z,46.90
2018-08-22T14:13:02.661Z,46.30
2018-08-22T14:15:31.141Z,46.80
2018-08-22T14:17:59.560Z,45.90
2018-08-22T14:20:27.992Z,47.00
2018-08-22T14:22:56.448Z,46.70
2018-08-22T14:25:24.926Z,46.60
2018-08-22T14:27:53.388Z,47.10
2018-08-22T14:30:21.830Z,46.80
2018-08-22T14:32:50.307Z,46.80
2018-08-22T14:35:18.745Z,46.90
2018-08-22T14:37:47.209Z,46.00
2018-08-22T14:40:15.654Z,46.10
2018-08-22T14:42:44.145Z,46.80
2018-08-22T14:45:12.585Z,46.60
2018-08-22T14:47:41.060Z,46.60
2018-08-22T14:50:09.512Z,46.70
2018-08-22T14:52:38.264Z,46.90
2018-08-22T14:55:06.768Z,46.80
2018-08-22T14:57:35.220Z,46.60
2018-08-22T15:00:03.717Z,46.80
2018-08-22T15:02:32.267Z,47.10
2018-08-22T15:05:00.631Z,47.30
2018-08-22T15:07:29.084Z,46.80
2018-08-22T15:09:57.521Z,47.20
2018-08-22T15:12:25.964Z,47.60
2018-08-22T15:14:54.424Z,47.70
2018-08-22T15:17:22.889Z,47.20
2018-08-22T15:19:51.340Z,47.80
2018-08-22T15:22:19.804Z,47.00
2018-08-22T15:24:48.256Z,47.30
2018-08-22T15:27:16.693Z,47.20
2018-08-22T15:29:45.158Z,47.50
2018-08-22T15:32:13.600Z,46.80
2018-08-22T15:34:49.453Z,46.90
2018-08-22T15:37:17.940Z,46.80
2018-08-22T15:39:46.400Z,46.70
2018-08-22T15:42:14.840Z,47.10
2018-08-22T15:44:43.330Z,47.10
2018-08-22T15:47:12.473Z,47.50
2018-08-22T15:49:41.008Z,47.70
2018-08-22T15:52:09.437Z,46.60
2018-08-22T15:54:37.880Z,46.70
2018-08-22T15:57:06.332Z,47.30
2018-08-22T15:59:34.789Z,47.30
2018-08-22T16:02:03.241Z,47.90
2018-08-22T16:04:42.149Z,48.00
2018-08-22T16:07:10.614Z,48.40
2018-08-22T16:09:39.825Z,48.60
2018-08-22T16:12:08.267Z,49.30
2018-08-22T16:14:36.757Z,48.50
2018-08-22T16:17:05.184Z,48.80
2018-08-22T16:19:33.604Z,50.00
2018-08-22T16:22:02.106Z,50.10
2018-08-22T16:24:30.558Z,49.80
2018-08-22T16:26:59.018Z,49.70
2018-08-22T16:29:27.497Z,49.90
2018-08-22T16:31:55.976Z,50.20
2018-08-22T16:34:24.419Z,50.50
2018-08-22T16:36:52.902Z,50.30
2018-08-22T16:39:38.862Z,50.50
2018-08-22T16:42:08.078Z,50.80
2018-08-22T16:44:36.571Z,50.80
2018-08-22T16:47:05.352Z,51.10
2018-08-22T16:49:33.901Z,51.10
2018-08-22T16:52:02.440Z,50.90
2018-08-22T16:54:31.048Z,51.30
2018-08-22T16:56:59.581Z,51.10
2018-08-22T16:59:28.149Z,50.50
2018-08-22T17:01:57.706Z,50.80
2018-08-22T17:04:26.671Z,52.80
2018-08-22T17:06:57.521Z,54.90
2018-08-22T17:09:27.349Z,56.10
2018-08-22T17:11:55.784Z,56.00
2018-08-22T17:14:24.221Z,56.80
2018-08-22T17:16:52.719Z,58.50
2018-08-22T17:19:21.128Z,61.20
2018-08-22T17:21:49.663Z,61.90
2018-08-22T17:24:18.089Z,63.70
2018-08-22T17:26:46.533Z,63.10
2018-08-22T17:29:15.429Z,63.30
2018-08-22T17:31:44.968Z,64.70
2018-08-22T17:34:13.392Z,63.60
2018-08-22T17:36:41.919Z,63.20
2018-08-22T17:39:10.437Z,65.40
2018-08-22T17:41:38.852Z,66.40
2018-08-22T17:44:08.456Z,68.30
2018-08-22T17:46:45.279Z,68.10
2018-08-22T17:49:13.728Z,68.10
2018-08-22T17:51:54.906Z,69.80
2018-08-22T17:54:23.371Z,70.60
2018-08-22T17:57:01.812Z,70.00
2018-08-22T17:59:30.287Z,69.60
2018-08-22T18:01:59.857Z,69.30
2018-08-22T18:04:33.036Z,74.10
2018-08-22T18:07:01.462Z,75.00
2018-08-22T18:09:29.988Z,74.10
2018-08-22T18:12:01.615Z,73.60
2018-08-22T18:14:35.949Z,74.70
2018-08-22T18:17:10.594Z,75.40
2018-08-22T18:19:42.418Z,75.60
2018-08-22T18:22:14.296Z,76.90
2018-08-22T18:24:57.137Z,78.10
2018-08-22T18:27:26.545Z,77.70
2018-08-22T18:29:58.724Z,77.50
2018-08-22T18:32:30.310Z,77.90
2018-08-22T18:35:07.756Z,77.90
2018-08-22T18:37:42.976Z,78.30
2018-08-22T18:40:28.648Z,78.40
2018-08-22T18:43:06.996Z,79.30
2018-08-22T18:45:40.630Z,79.60
2018-08-22T18:48:09.285Z,79.70
2018-08-22T18:50:42.383Z,79.90
2018-08-22T18:53:11.346Z,80.10
2018-08-22T18:55:42.537Z,80.50
2018-08-22T18:58:27.827Z,81.10
2018-08-22T19:01:04.604Z,81.70
2018-08-22T19:03:37.357Z,82.20
2018-08-22T19:06:10.421Z,82.10
2018-08-22T19:08:49.163Z,82.10
2018-08-22T19:16:06.420Z,83.00
2018-08-22T19:18:35.046Z,83.40
2018-08-22T19:21:05.907Z,84.10
2018-08-22T19:28:12.946Z,85.30
2018-08-22T19:30:48.303Z,85.20
2018-08-22T19:33:23.169Z,85.30
2018-08-22T19:35:55.554Z,85.30
2018-08-22T19:38:29.133Z,85.70
2018-08-22T19:41:06.514Z,85.40
2018-08-22T19:43:35.105Z,85.40
2018-08-22T19:46:04.540Z,85.30
2018-08-22T19:48:38.109Z,85.40
2018-08-22T19:51:21.405Z,86.10
2018-08-22T19:54:02.522Z,86.30
2018-08-22T19:56:40.589Z,86.50
2018-08-22T19:59:15.835Z,86.80
2018-08-22T20:01:45.067Z,86.70
2018-08-22T20:04:16.537Z,87.20
2018-08-22T20:07:02.717Z,87.10
2018-08-22T20:09:32.243Z,87.00
2018-08-22T20:12:00.678Z,87.30
2018-08-22T20:14:29.185Z,88.80
2018-08-22T20:16:57.670Z,90.10
2018-08-22T20:19:30.349Z,90.10
2018-08-22T20:21:58.783Z,89.90
2018-08-22T20:24:27.413Z,89.80
2018-08-22T20:27:00.852Z,90.00
2018-08-22T20:29:29.264Z,90.50
2018-08-22T20:31:57.700Z,90.20
2018-08-22T20:34:26.108Z,90.30
2018-08-22T20:36:54.554Z,90.30
2018-08-22T20:39:22.966Z,90.50
2018-08-22T20:41:54.399Z,90.60
2018-08-22T20:44:22.822Z,90.80
2018-08-22T20:46:51.283Z,90.80
2018-08-22T20:49:20.755Z,90.80
2018-08-22T20:51:49.462Z,90.90
2018-08-22T20:54:21.045Z,90.90
2018-08-22T20:56:54.812Z,90.90
2018-08-22T20:59:23.244Z,90.90
2018-08-22T21:01:57.157Z,91.30
2018-08-22T21:04:25.545Z,92.10
2018-08-22T21:06:54.001Z,92.60
2018-08-22T21:09:22.439Z,92.60
2018-08-22T21:11:51.421Z,92.60
2018-08-22T21:14:19.855Z,92.80
2018-08-22T21:16:48.291Z,93.10
2018-08-22T21:19:16.725Z,93.20
2018-08-22T21:21:45.162Z,93.50
2018-08-22T21:24:13.625Z,93.40
2018-08-22T21:26:44.309Z,93.40
2018-08-22T21:29:12.891Z,93.40
2018-08-22T21:31:41.325Z,93.70
2018-08-22T21:34:15.223Z,94.60
2018-08-22T21:36:45.062Z,95.50
2018-08-22T21:39:18.870Z,95.40
2018-08-22T21:41:47.790Z,95.90
2018-08-22T21:44:18.520Z,96.10
2018-08-22T21:46:49.869Z,96.40
2018-08-22T21:49:18.332Z,96.30
2018-08-22T21:51:46.772Z,96.60
2018-08-22T21:54:15.240Z,96.60
2018-08-22T21:56:43.724Z,96.60
2018-08-22T21:59:12.187Z,96.40
2018-08-22T22:01:47.063Z,96.50
2018-08-22T22:04:20.433Z,96.90
2018-08-22T22:06:49.034Z,97.30
2018-08-22T22:09:17.483Z,98.00
2018-08-22T22:11:46.272Z,98.40
2018-08-22T22:14:20.902Z,98.50
2018-08-22T22:16:49.362Z,98.40
2018-08-22T22:19:17.829Z,98.80
2018-08-22T22:21:46.256Z,99.90
2018-08-22T22:24:14.683Z,99.90
2018-08-22T22:26:43.155Z,99.90
2018-08-22T22:29:11.784Z,99.90
2018-08-22T22:31:40.220Z,99.90
2018-08-22T22:34:10.683Z,99.90
2018-08-22T22:36:39.133Z,99.90
2018-08-22T22:39:43.197Z,99.90
2018-08-22T22:42:27.517Z,99.90
2018-08-22T22:44:58.080Z,99.90
2018-08-22T22:47:26.584Z,99.90
2018-08-22T22:49:55.560Z,99.90
2018-08-22T22:52:31.620Z,99.90
2018-08-22T22:55:01.231Z,99.90
2018-08-22T22:57:31.484Z,99.90
2018-08-22T23:00:00.657Z,99.90
2018-08-22T23:02:29.457Z,99.90
2018-08-22T23:04:58.643Z,99.90
2018-08-22T23:07:35.903Z,99.90
2018-08-22T23:10:05.537Z,99.90
2018-08-22T23:12:40.892Z,99.90
2018-08-22T23:15:10.781Z,99.90
2018-08-22T23:17:39.513Z,99.90
2018-08-22T23:20:17.361Z,99.90
2018-08-22T23:22:45.869Z,99.90
2018-08-22T23:25:14.290Z,99.90
2018-08-22T23:27:42.720Z,99.90
2018-08-22T23:30:11.236Z,99.90
2018-08-22T23:32:39.643Z,99.90
2018-08-22T23:35:26.536Z,99.90
2018-08-22T23:37:56.259Z,99.90
2018-08-22T23:40:25.844Z,99.90
2018-08-22T23:42:54.620Z,99.90
2018-08-22T23:45:23.236Z,99.90
2018-08-22T23:47:51.664Z,99.90
2018-08-22T23:50:20.300Z,99.90
2018-08-22T23:52:50.095Z,99.90
2018-08-22T23:55:20.024Z,99.90
2018-08-22T23:57:50.830Z,99.90
